createdAt,value
2019-05-25T00:01:37.475Z,11.20
2019-05-25T00:04:03.673Z,11.20
2019-05-25T00:06:30.106Z,11.20
2019-05-25T00:08:56.426Z,11.20
2019-05-25T00:11:22.593Z,11.20
2019-05-25T00:13:49.491Z,11.20
2019-05-25T00:16:15.686Z,11.20
2019-05-25T00:18:41.857Z,11.20
2019-05-25T00:21:08.032Z,11.00
2019-05-25T00:23:47.537Z,10.90
2019-05-25T00:26:13.747Z,11.00
2019-05-25T00:28:40.029Z,11.10
2019-05-25T00:31:06.189Z,11.00
2019-05-25T00:33:32.622Z,11.00
2019-05-25T00:35:58.832Z,11.00
2019-05-25T00:38:25.107Z,10.90
2019-05-25T00:40:51.266Z,10.80
2019-05-25T00:43:17.502Z,10.70
2019-05-25T00:45:43.694Z,10.70
2019-05-25T00:48:09.858Z,10.70
2019-05-25T00:50:36.043Z,10.70
2019-05-25T00:53:02.293Z,10.70
2019-05-25T00:55:28.490Z,10.70
2019-05-25T00:57:54.643Z,10.70
2019-05-25T01:00:21.238Z,10.70
2019-05-25T01:02:47.678Z,10.70
2019-05-25T01:05:14.058Z,10.70
2019-05-25T01:07:40.338Z,10.70
2019-05-25T01:10:07.350Z,10.70
2019-05-25T01:12:33.523Z,10.60
2019-05-25T01:14:59.701Z,10.60
2019-05-25T01:17:25.974Z,10.50
2019-05-25T01:19:52.149Z,10.50
2019-05-25T01:22:18.334Z,10.50
2019-05-25T01:24:45.083Z,10.50
2019-05-25T01:27:11.383Z,10.50
2019-05-25T01:29:37.544Z,10.50
2019-05-25T01:32:03.726Z,10.50
2019-05-25T01:34:29.901Z,10.50
2019-05-25T01:36:56.090Z,10.50
2019-05-25T01:39:22.357Z,10.50
2019-05-25T01:41:51.551Z,10.50
2019-05-25T01:44:17.668Z,10.40
2019-05-25T01:46:43.852Z,10.50
2019-05-25T01:49:10.021Z,10.50
2019-05-25T01:51:36.196Z,10.50
2019-05-25T01:54:02.591Z,10.50
2019-05-25T01:56:28.766Z,10.50
2019-05-25T01:58:54.929Z,10.50
2019-05-25T02:01:21.113Z,10.30
2019-05-25T02:03:47.265Z,10.20
2019-05-25T02:06:13.441Z,10.20
2019-05-25T02:08:39.655Z,10.30
2019-05-25T02:11:05.934Z,10.30
2019-05-25T02:13:32.106Z,10.20
2019-05-25T02:15:58.269Z,10.30
2019-05-25T02:18:24.459Z,10.30
2019-05-25T02:20:50.621Z,10.20
2019-05-25T02:23:17.312Z,10.10
2019-05-25T02:25:43.485Z,10.00
2019-05-25T02:28:09.704Z,9.80
2019-05-25T02:30:35.874Z,9.90
2019-05-25T02:33:02.173Z,9.80
2019-05-25T02:35:28.569Z,9.80
2019-05-25T02:37:56.125Z,9.80
2019-05-25T02:40:22.713Z,9.80
2019-05-25T02:42:48.894Z,9.80
2019-05-25T02:45:15.165Z,9.70
2019-05-25T02:47:41.330Z,9.70
2019-05-25T02:50:08.009Z,9.60
2019-05-25T02:52:34.388Z,9.60
2019-05-25T02:55:00.582Z,9.60
2019-05-25T02:57:26.737Z,9.60
2019-05-25T02:59:52.934Z,9.60
2019-05-25T03:02:19.509Z,9.60
2019-05-25T03:04:45.674Z,9.70
2019-05-25T03:07:12.165Z,9.70
2019-05-25T03:09:39.548Z,9.70
2019-05-25T03:12:06.158Z,9.70
2019-05-25T03:14:32.582Z,9.70
2019-05-25T03:16:58.758Z,9.60
2019-05-25T03:19:24.924Z,9.70
2019-05-25T03:21:51.097Z,9.70
2019-05-25T03:24:17.280Z,9.80
2019-05-25T03:26:43.473Z,9.80
2019-05-25T03:29:09.630Z,9.80
2019-05-25T03:31:35.806Z,9.70
2019-05-25T03:34:03.077Z,9.80
2019-05-25T03:36:29.257Z,9.80
2019-05-25T03:38:55.516Z,9.70
2019-05-25T03:41:21.775Z,9.80
2019-05-25T03:43:47.984Z,9.90
2019-05-25T03:46:14.165Z,10.00
2019-05-25T03:48:40.340Z,10.10
2019-05-25T03:51:06.535Z,10.00
2019-05-25T03:53:33.687Z,9.90
2019-05-25T03:56:05.765Z,9.90
2019-05-25T03:58:27.961Z,10.00
2019-05-25T04:00:54.125Z,10.00
2019-05-25T04:03:20.300Z,10.10
2019-05-25T04:05:46.505Z,10.10
2019-05-25T04:08:12.731Z,10.10
2019-05-25T04:10:39.198Z,10.20
2019-05-25T04:13:05.567Z,10.30
2019-05-25T04:15:31.832Z,10.40
2019-05-25T04:17:58.046Z,10.70
2019-05-25T04:20:24.298Z,10.80
2019-05-25T04:22:50.475Z,10.90
2019-05-25T04:25:17.864Z,11.50
2019-05-25T04:27:44.129Z,12.30
2019-05-25T04:30:10.812Z,13.10
2019-05-25T04:32:36.987Z,14.00
2019-05-25T04:35:03.914Z,14.60
2019-05-25T04:37:30.063Z,14.80
2019-05-25T04:39:56.269Z,15.50
2019-05-25T04:42:22.451Z,15.90
2019-05-25T04:44:48.622Z,16.00
2019-05-25T04:47:26.485Z,16.30
2019-05-25T04:49:42.926Z,16.80
2019-05-25T04:52:09.117Z,17.70
2019-05-25T04:54:35.383Z,18.50
2019-05-25T04:57:01.613Z,19.30
2019-05-25T04:59:27.868Z,19.50
2019-05-25T05:01:54.071Z,20.00
2019-05-25T05:04:20.288Z,20.20
2019-05-25T05:06:46.534Z,20.60
2019-05-25T05:09:12.816Z,21.00
2019-05-25T05:11:39.030Z,21.20
2019-05-25T05:14:05.181Z,21.80
2019-05-25T05:16:31.521Z,22.00
2019-05-25T05:18:57.707Z,22.30
2019-05-25T05:21:24.486Z,23.00
2019-05-25T05:23:51.127Z,22.90
2019-05-25T05:26:17.353Z,24.60
2019-05-25T05:28:43.595Z,25.50
2019-05-25T05:31:22.811Z,25.90
2019-05-25T05:33:37.885Z,26.10
2019-05-25T05:36:04.084Z,26.50
2019-05-25T05:38:31.566Z,26.30
2019-05-25T05:40:59.577Z,26.80
2019-05-25T05:43:27.685Z,27.80
2019-05-25T05:45:54.218Z,28.10
2019-05-25T05:48:33.718Z,27.60
2019-05-25T05:51:00.161Z,27.50
2019-05-25T05:53:26.620Z,28.60
2019-05-25T05:55:52.792Z,29.40
2019-05-25T05:58:19.274Z,29.50
2019-05-25T06:00:46.656Z,28.80
2019-05-25T06:03:12.848Z,29.20
2019-05-25T06:05:39.033Z,29.30
2019-05-25T06:08:05.308Z,29.90
2019-05-25T06:10:31.673Z,29.80
2019-05-25T06:12:57.884Z,30.20
2019-05-25T06:15:24.034Z,30.90
2019-05-25T06:17:50.223Z,30.90
2019-05-25T06:20:16.529Z,31.30
2019-05-25T06:22:42.723Z,31.60
2019-05-25T06:25:09.536Z,32.40
2019-05-25T06:27:35.698Z,32.70
2019-05-25T06:30:05.191Z,33.30
2019-05-25T06:32:32.760Z,33.70
2019-05-25T06:34:58.985Z,33.80
2019-05-25T06:37:25.185Z,34.30
2019-05-25T06:39:51.365Z,34.90
2019-05-25T06:42:17.726Z,35.10
2019-05-25T06:44:44.054Z,33.40
2019-05-25T06:47:10.230Z,33.10
2019-05-25T06:49:36.408Z,33.70
2019-05-25T06:52:03.949Z,34.60
2019-05-25T06:54:30.188Z,34.70
2019-05-25T06:56:56.397Z,35.40
2019-05-25T06:59:22.629Z,35.90
2019-05-25T07:01:48.825Z,35.50
2019-05-25T07:04:14.997Z,35.50
2019-05-25T07:06:41.164Z,34.00
2019-05-25T07:09:07.352Z,33.00
2019-05-25T07:11:33.514Z,33.00
2019-05-25T07:13:59.686Z,34.60
2019-05-25T07:16:25.893Z,34.10
2019-05-25T07:18:52.173Z,34.00
2019-05-25T07:21:19.531Z,33.50
2019-05-25T07:23:45.716Z,33.40
2019-05-25T07:26:11.905Z,33.60
2019-05-25T07:28:38.087Z,34.50
2019-05-25T07:31:04.315Z,34.20
2019-05-25T07:33:30.582Z,35.00
2019-05-25T07:35:56.857Z,34.40
2019-05-25T07:38:23.030Z,33.80
2019-05-25T07:40:49.213Z,33.30
2019-05-25T07:43:15.371Z,33.60
2019-05-25T07:45:41.868Z,31.50
2019-05-25T07:48:08.063Z,32.10
2019-05-25T07:50:34.372Z,31.80
2019-05-25T07:53:00.622Z,31.90
2019-05-25T07:55:27.901Z,31.30
2019-05-25T07:57:54.057Z,32.10
2019-05-25T08:00:20.234Z,32.70
2019-05-25T08:02:46.648Z,33.30
2019-05-25T08:05:13.212Z,34.70
2019-05-25T08:07:39.394Z,35.40
2019-05-25T08:10:06.849Z,35.00
2019-05-25T08:12:34.160Z,36.20
2019-05-25T08:15:01.693Z,36.40
2019-05-25T08:17:27.939Z,36.40
2019-05-25T08:19:54.113Z,36.00
2019-05-25T08:22:20.350Z,35.90
2019-05-25T08:24:46.662Z,37.70
2019-05-25T08:27:13.187Z,38.20
2019-05-25T08:29:39.350Z,38.30
2019-05-25T08:32:05.864Z,37.80
2019-05-25T08:34:32.053Z,37.00
2019-05-25T08:36:58.218Z,36.60
2019-05-25T08:39:24.408Z,39.00
2019-05-25T08:41:50.569Z,37.90
2019-05-25T08:44:16.753Z,37.00
2019-05-25T08:46:42.914Z,39.70
2019-05-25T08:49:09.230Z,39.40
2019-05-25T08:51:35.398Z,39.50
2019-05-25T08:54:01.610Z,41.20
2019-05-25T08:56:27.804Z,41.30
2019-05-25T08:58:55.638Z,40.60
2019-05-25T09:01:22.053Z,41.00
2019-05-25T09:03:48.245Z,40.80
2019-05-25T09:06:14.429Z,40.50
2019-05-25T09:08:40.590Z,39.40
2019-05-25T09:11:06.782Z,38.70
2019-05-25T09:13:33.017Z,40.10
2019-05-25T09:15:59.261Z,40.80
2019-05-25T09:18:26.021Z,40.50
2019-05-25T09:20:52.214Z,41.50
2019-05-25T09:23:18.391Z,40.90
2019-05-25T09:25:44.587Z,39.70
2019-05-25T09:28:10.857Z,39.50
2019-05-25T09:30:37.400Z,40.40
2019-05-25T09:33:03.642Z,40.90
2019-05-25T09:35:29.801Z,40.80
2019-05-25T09:37:55.982Z,40.00
2019-05-25T09:40:22.190Z,39.20
2019-05-25T09:42:48.414Z,39.00
2019-05-25T09:45:14.916Z,38.60
2019-05-25T09:47:41.114Z,38.00
2019-05-25T09:50:29.162Z,37.10
2019-05-25T09:52:55.466Z,36.40
2019-05-25T09:55:21.630Z,35.40
2019-05-25T09:57:47.901Z,34.80
2019-05-25T10:00:15.420Z,34.30
2019-05-25T10:02:42.329Z,34.20
2019-05-25T10:05:09.452Z,34.70
2019-05-25T10:07:35.625Z,34.50
2019-05-25T10:10:04.407Z,35.40
2019-05-25T10:12:30.615Z,34.80
2019-05-25T10:14:56.831Z,34.40
2019-05-25T10:17:22.980Z,33.70
2019-05-25T10:19:49.273Z,33.00
2019-05-25T10:22:15.438Z,33.00
2019-05-25T10:24:41.626Z,33.30
2019-05-25T10:27:07.851Z,33.60
2019-05-25T10:29:37.257Z,33.00
2019-05-25T10:32:02.129Z,32.10
2019-05-25T10:34:28.320Z,31.10
2019-05-25T10:36:54.512Z,30.40
2019-05-25T10:39:20.733Z,29.30
2019-05-25T10:41:46.931Z,28.50
2019-05-25T10:44:13.098Z,28.00
2019-05-25T10:46:39.577Z,27.90
2019-05-25T10:49:05.846Z,27.80
2019-05-25T10:51:32.027Z,27.40
2019-05-25T10:53:58.205Z,27.90
2019-05-25T10:56:24.389Z,28.40
2019-05-25T10:58:51.100Z,28.60
2019-05-25T11:01:17.325Z,29.50
2019-05-25T11:03:43.525Z,29.90
2019-05-25T11:06:09.713Z,30.70
2019-05-25T11:08:35.941Z,30.90
2019-05-25T11:11:02.239Z,30.20
2019-05-25T11:13:28.409Z,30.00
2019-05-25T11:15:55.593Z,29.10
2019-05-25T11:18:21.794Z,29.40
2019-05-25T11:20:48.056Z,29.90
2019-05-25T11:23:14.290Z,29.10
2019-05-25T11:25:40.549Z,29.00
2019-05-25T11:28:08.391Z,28.40
2019-05-25T11:30:34.803Z,29.40
2019-05-25T11:33:01.076Z,30.40
2019-05-25T11:35:27.266Z,30.60
2019-05-25T11:37:53.571Z,31.10
2019-05-25T11:40:20.812Z,31.40
2019-05-25T11:42:46.993Z,31.40
2019-05-25T11:45:14.020Z,30.40
2019-05-25T11:47:40.240Z,29.70
2019-05-25T11:50:07.437Z,29.50
2019-05-25T11:52:33.615Z,30.50
2019-05-25T11:54:59.801Z,29.80
2019-05-25T11:57:26.072Z,30.20
2019-05-25T11:59:52.241Z,29.90
2019-05-25T12:02:18.417Z,29.50
2019-05-25T12:04:44.691Z,29.30
2019-05-25T12:07:10.973Z,29.20
2019-05-25T12:09:37.130Z,29.10
2019-05-25T12:12:03.441Z,30.20
2019-05-25T12:14:29.881Z,29.50
2019-05-25T12:16:56.056Z,29.00
2019-05-25T12:19:22.337Z,29.70
2019-05-25T12:21:48.800Z,29.60
2019-05-25T12:24:15.159Z,29.50
2019-05-25T12:26:41.313Z,29.30
2019-05-25T12:29:07.623Z,28.80
2019-05-25T12:31:33.854Z,28.30
2019-05-25T12:34:00.048Z,27.40
2019-05-25T12:36:26.273Z,26.10
2019-05-25T12:38:52.513Z,25.60
2019-05-25T12:41:18.669Z,25.30
2019-05-25T12:43:44.920Z,25.10
2019-05-25T12:46:11.085Z,24.80
2019-05-25T12:48:37.314Z,24.70
2019-05-25T12:51:03.504Z,24.60
2019-05-25T12:53:29.693Z,24.70
2019-05-25T12:55:55.883Z,24.50
2019-05-25T12:58:23.805Z,24.80
2019-05-25T13:00:56.036Z,25.40
2019-05-25T13:03:18.445Z,25.80
2019-05-25T13:05:45.843Z,25.60
2019-05-25T13:08:12.027Z,25.90
2019-05-25T13:10:38.238Z,26.20
2019-05-25T13:13:04.433Z,26.60
2019-05-25T13:15:30.727Z,26.90
2019-05-25T13:18:16.760Z,26.40
2019-05-25T13:20:42.988Z,26.20
2019-05-25T13:23:09.213Z,25.70
2019-05-25T13:25:35.386Z,25.40
2019-05-25T13:28:01.774Z,25.30
2019-05-25T13:30:27.966Z,25.30
2019-05-25T13:32:54.405Z,25.30
2019-05-25T13:35:20.648Z,24.70
2019-05-25T13:37:46.970Z,25.00
2019-05-25T13:40:13.579Z,24.80
2019-05-25T13:42:39.801Z,24.90
2019-05-25T13:45:07.181Z,24.60
2019-05-25T13:47:33.429Z,24.40
2019-05-25T13:49:59.694Z,24.50
2019-05-25T13:52:25.939Z,24.70
2019-05-25T13:54:52.184Z,24.70
2019-05-25T13:57:18.464Z,24.20
2019-05-25T13:59:44.676Z,24.10
2019-05-25T14:02:10.908Z,24.10
2019-05-25T14:04:37.081Z,24.10
2019-05-25T14:07:03.353Z,24.20
2019-05-25T14:09:29.609Z,23.90
2019-05-25T14:11:55.846Z,23.80
2019-05-25T14:14:24.337Z,23.70
2019-05-25T14:16:50.090Z,23.50
2019-05-25T14:19:16.267Z,23.40
2019-05-25T14:21:42.418Z,23.30
2019-05-25T14:24:08.610Z,23.20
2019-05-25T14:26:34.770Z,23.30
2019-05-25T14:29:00.948Z,23.10
2019-05-25T14:31:27.132Z,23.00
2019-05-25T14:33:53.377Z,23.00
2019-05-25T14:36:19.885Z,22.80
2019-05-25T14:38:46.060Z,22.70
2019-05-25T14:41:12.250Z,22.60
2019-05-25T14:43:38.411Z,22.50
2019-05-25T14:46:04.597Z,22.30
2019-05-25T14:48:31.189Z,22.20
2019-05-25T14:50:57.470Z,22.10
2019-05-25T14:53:23.688Z,21.90
2019-05-25T14:55:49.864Z,21.80
2019-05-25T14:58:16.054Z,21.70
2019-05-25T15:00:42.418Z,21.80
2019-05-25T15:03:08.601Z,21.60
2019-05-25T15:05:34.888Z,21.40
2019-05-25T15:08:01.046Z,21.20
2019-05-25T15:10:27.244Z,20.80
2019-05-25T15:12:53.425Z,20.50
2019-05-25T15:15:19.627Z,20.40
2019-05-25T15:17:45.786Z,20.10
2019-05-25T15:20:13.818Z,19.80
2019-05-25T15:22:40.003Z,19.60
2019-05-25T15:25:06.885Z,19.50
2019-05-25T15:27:33.106Z,19.50
2019-05-25T15:29:59.301Z,19.30
2019-05-25T15:32:25.512Z,18.80
2019-05-25T15:34:52.837Z,18.60
2019-05-25T15:37:19.024Z,18.50
2019-05-25T15:39:45.229Z,18.50
2019-05-25T15:42:11.414Z,18.40
2019-05-25T15:44:37.698Z,18.40
2019-05-25T15:47:05.129Z,18.30
2019-05-25T15:49:33.678Z,18.30
2019-05-25T15:52:00.916Z,18.00
2019-05-25T15:54:27.089Z,17.80
2019-05-25T15:56:53.261Z,18.10
2019-05-25T15:59:23.347Z,18.10
2019-05-25T16:01:47.550Z,18.00
2019-05-25T16:04:13.823Z,18.10
2019-05-25T16:06:40.347Z,17.90
2019-05-25T16:09:06.799Z,17.60
2019-05-25T16:11:33.037Z,17.60
2019-05-25T16:13:59.281Z,17.60
2019-05-25T16:16:30.075Z,17.50
2019-05-25T16:18:53.837Z,17.20
2019-05-25T16:21:20.028Z,17.00
2019-05-25T16:23:46.986Z,17.00
2019-05-25T16:26:13.234Z,16.90
2019-05-25T16:28:39.429Z,16.80
2019-05-25T16:31:05.607Z,16.80
2019-05-25T16:33:31.775Z,16.90
2019-05-25T16:35:58.206Z,16.90
2019-05-25T16:38:24.637Z,16.90
2019-05-25T16:40:50.905Z,17.10
2019-05-25T16:43:17.110Z,17.10
2019-05-25T16:45:43.281Z,17.00
2019-05-25T16:48:10.553Z,17.00
2019-05-25T16:50:37.062Z,17.20
2019-05-25T16:53:03.544Z,17.30
2019-05-25T16:55:29.713Z,17.40
2019-05-25T16:57:55.878Z,17.50
2019-05-25T17:00:26.993Z,17.40
2019-05-25T17:02:53.985Z,17.40
2019-05-25T17:05:20.168Z,17.30
2019-05-25T17:07:46.372Z,17.30
2019-05-25T17:10:12.908Z,17.20
2019-05-25T17:12:39.109Z,17.20
2019-05-25T17:15:05.368Z,17.30
2019-05-25T17:17:31.638Z,17.30
2019-05-25T17:19:57.837Z,17.20
2019-05-25T17:22:24.050Z,17.20
2019-05-25T17:24:50.253Z,17.30
2019-05-25T17:27:16.440Z,17.40
2019-05-25T17:29:42.629Z,17.40
2019-05-25T17:32:08.800Z,17.10
2019-05-25T17:34:34.973Z,17.10
2019-05-25T17:37:01.352Z,17.10
2019-05-25T17:39:27.600Z,17.00
2019-05-25T17:41:53.896Z,17.00
2019-05-25T17:44:20.069Z,17.00
2019-05-25T17:46:46.345Z,17.00
2019-05-25T17:49:12.696Z,16.90
2019-05-25T17:51:39.030Z,16.80
2019-05-25T17:54:05.619Z,16.70
2019-05-25T17:56:32.796Z,16.70
2019-05-25T17:58:58.993Z,16.80
2019-05-25T18:01:25.164Z,16.80
2019-05-25T18:04:05.747Z,16.80
2019-05-25T18:06:19.495Z,16.90
2019-05-25T18:08:45.764Z,16.80
2019-05-25T18:11:12.024Z,16.70
2019-05-25T18:13:38.278Z,16.60
2019-05-25T18:16:04.484Z,16.50
2019-05-25T18:18:30.835Z,16.50
2019-05-25T18:20:57.166Z,16.40
2019-05-25T18:23:24.523Z,16.40
2019-05-25T18:25:50.758Z,16.40
2019-05-25T18:28:18.112Z,16.30
2019-05-25T18:30:44.341Z,16.20
2019-05-25T18:33:10.517Z,16.20
2019-05-25T18:35:36.690Z,16.10
2019-05-25T18:38:03.102Z,16.00
2019-05-25T18:40:29.275Z,15.90
2019-05-25T18:42:55.557Z,15.80
2019-05-25T18:45:21.861Z,15.80
2019-05-25T18:47:48.129Z,15.70
2019-05-25T18:50:17.022Z,15.60
2019-05-25T18:52:43.213Z,15.60
2019-05-25T18:55:10.040Z,15.60
2019-05-25T18:57:36.294Z,15.60
2019-05-25T19:00:06.378Z,15.60
2019-05-25T19:02:32.802Z,15.50
2019-05-25T19:05:00.049Z,15.40
2019-05-25T19:07:26.562Z,15.40
2019-05-25T19:09:52.736Z,15.40
2019-05-25T19:12:18.938Z,15.40
2019-05-25T19:14:45.452Z,15.30
2019-05-25T19:17:11.645Z,15.30
2019-05-25T19:19:37.844Z,15.20
2019-05-25T19:22:04.038Z,15.20
2019-05-25T19:24:30.240Z,15.10
2019-05-25T19:26:56.408Z,15.10
2019-05-25T19:29:22.697Z,15.10
2019-05-25T19:31:48.898Z,15.10
2019-05-25T19:34:15.064Z,15.10
2019-05-25T19:36:41.350Z,15.00
2019-05-25T19:39:07.512Z,15.00
2019-05-25T19:41:33.734Z,15.00
2019-05-25T19:43:59.888Z,15.00
2019-05-25T19:46:26.095Z,15.00
2019-05-25T19:48:52.251Z,15.00
2019-05-25T19:51:18.416Z,14.90
2019-05-25T19:53:44.594Z,15.00
2019-05-25T19:56:10.781Z,14.90
2019-05-25T19:58:37.181Z,14.80
2019-05-25T20:01:03.408Z,14.80
2019-05-25T20:03:29.569Z,14.80
2019-05-25T20:05:55.740Z,14.80
2019-05-25T20:08:21.925Z,14.70
2019-05-25T20:10:48.227Z,14.70
2019-05-25T20:13:14.445Z,14.70
2019-05-25T20:15:40.645Z,14.70
2019-05-25T20:18:06.824Z,14.70
2019-05-25T20:20:33.018Z,14.70
2019-05-25T20:22:59.182Z,14.60
2019-05-25T20:25:25.353Z,14.60
2019-05-25T20:27:51.579Z,14.50
2019-05-25T20:30:17.950Z,14.60
2019-05-25T20:32:44.122Z,14.50
2019-05-25T20:35:10.646Z,14.50
2019-05-25T20:37:36.862Z,14.50
2019-05-25T20:40:06.941Z,14.40
2019-05-25T20:42:33.205Z,14.30
2019-05-25T20:44:59.417Z,14.30
2019-05-25T20:47:25.774Z,14.30
2019-05-25T20:49:52.009Z,14.30
2019-05-25T20:52:18.192Z,14.30
2019-05-25T20:54:44.371Z,14.20
2019-05-25T20:57:10.589Z,14.20
2019-05-25T20:59:37.012Z,14.10
2019-05-25T21:02:03.688Z,13.90
2019-05-25T21:04:30.141Z,13.80
2019-05-25T21:06:56.316Z,13.80
2019-05-25T21:09:22.490Z,13.80
2019-05-25T21:11:48.652Z,13.80
2019-05-25T21:14:14.839Z,13.70
2019-05-25T21:16:40.997Z,13.70
2019-05-25T21:19:08.665Z,13.70
2019-05-25T21:21:34.872Z,13.60
2019-05-25T21:24:02.213Z,13.60
2019-05-25T21:26:28.398Z,13.60
2019-05-25T21:28:54.565Z,13.60
2019-05-25T21:31:23.812Z,13.60
2019-05-25T21:33:48.829Z,13.50
2019-05-25T21:36:15.001Z,13.50
2019-05-25T21:38:41.178Z,13.50
2019-05-25T21:41:07.791Z,13.50
2019-05-25T21:43:35.111Z,13.50
2019-05-25T21:46:01.272Z,13.40
2019-05-25T21:48:27.447Z,13.40
2019-05-25T21:50:53.609Z,13.40
2019-05-25T21:53:19.804Z,13.40
2019-05-25T21:55:45.978Z,13.40
2019-05-25T21:58:12.164Z,13.40
2019-05-25T22:00:39.626Z,13.40
2019-05-25T22:03:06.274Z,13.40
2019-05-25T22:05:32.445Z,13.30
2019-05-25T22:07:58.613Z,13.40
2019-05-25T22:10:24.820Z,13.40
2019-05-25T22:12:51.004Z,13.30
2019-05-25T22:15:17.180Z,13.40
2019-05-25T22:17:43.399Z,13.40
2019-05-25T22:20:10.163Z,13.40
2019-05-25T22:22:36.316Z,13.30
2019-05-25T22:25:04.417Z,13.40
2019-05-25T22:27:30.647Z,13.40
2019-05-25T22:29:56.819Z,13.40
2019-05-25T22:32:23.006Z,13.40
2019-05-25T22:34:49.189Z,13.40
2019-05-25T22:37:15.372Z,13.40
2019-05-25T22:39:41.583Z,13.30
2019-05-25T22:42:07.849Z,13.30
2019-05-25T22:44:34.024Z,13.30
2019-05-25T22:47:00.246Z,13.30
2019-05-25T22:49:26.400Z,13.30
2019-05-25T22:51:52.609Z,13.30
2019-05-25T22:54:18.855Z,13.30
2019-05-25T22:56:45.041Z,13.30
2019-05-25T22:59:11.214Z,13.30
2019-05-25T23:01:37.418Z,13.40
2019-05-25T23:04:03.708Z,13.30
2019-05-25T23:06:29.884Z,13.30
2019-05-25T23:08:56.049Z,13.30
2019-05-25T23:11:22.241Z,13.30
2019-05-25T23:13:48.426Z,13.30
2019-05-25T23:16:14.598Z,13.30
2019-05-25T23:18:40.766Z,13.30
2019-05-25T23:21:06.963Z,13.30
2019-05-25T23:23:33.145Z,13.30
2019-05-25T23:25:59.308Z,13.20
2019-05-25T23:28:25.529Z,13.20
2019-05-25T23:30:51.726Z,13.20
2019-05-25T23:33:17.892Z,13.20
2019-05-25T23:35:44.068Z,13.10
2019-05-25T23:38:10.260Z,13.10
2019-05-25T23:40:36.437Z,13.10
2019-05-25T23:43:02.602Z,13.10
2019-05-25T23:45:29.916Z,13.10
2019-05-25T23:47:56.170Z,13.00
2019-05-25T23:50:22.348Z,13.10
2019-05-25T23:52:48.651Z,13.10
2019-05-25T23:55:36.710Z,13.10
2019-05-25T23:58:02.925Z,13.00
